Dane County Regional Truax Field
KMSN : now visible

Airfield :











YOU CAN JOIN US ON...

 
LOGIN :

Register | Disclaimer

   EN    FR    IT 

 









Legend :    VFR   Marginal VFR   IFR   Intensive IFR   Very Intensive IFR
Visi :
Ceiling :
>= 8 km
>= 3000ft
5 to 8 km
1000 to 3000 ft
1500m to 5 km
500 to 1000 ft
800 to 1500m
200 to 500 ft
< 800m
< 200 ft
Symbols :   Thunderstorms  Fog  Heavy snow  Heavy precipitations  Wind > 20 kt






- Airport Elevation : 887 ft
- IATA code : MSN


KMSN - Dane County Regional Truax Field

CURRENT METAR :
  • 231453Z VRB03KT 10SM FEW250 02/M02 A2989 RMK AO2 SLP129 T00221022 53002

EXPIRED METARs :
  • 231353Z 00000KT 10SM FEW250 01/M03 A2989 RMK AO2 SLP130 T00061028
  • 231253Z 23006KT 10SM CLR 01/M03 A2988 RMK AO2 SLP126 T00061033

TAF KMSN
Valid from the 23 at 12:00 until the 24 at 12:00 UTC


231120Z 2312/2412 21006KT P6SM SKC
FM231600 24007KT P6SM SKC
FM240000 27006KT P6SM FEW250
FM240800 33006KT P6SM BKN060
FM241100 36005KT P6SM BKN035



MET'MAP, your aeronautical weather chart ! - Copyright ORBIFLY December 2007 - Disclaimer

ORBIFLY MET'MAP TEAM :

Programming & Development : Alexandra Zaïnal
Concept & original design : Baudouin d'Aumeries
Assistance for programming : Marc-Olivier Méhu
Technical & hardware support : Manuel Goepfert

Contact : metmap@orbifly.com




SOURCES & CREDITS :

   NOAA       Earth
Advisory